Time;durP1;ratioP1;P1;durP2;ratioP2;P2;SDS_P1;SDS_P2;PMS_P1;PMS_P2;Temp;Humidity;BMP_temperature;BMP_pressure;BME280_temperature;BME280_humidity;BME280_pressure;Samples;Min_cycle;Max_cycle;Signal;HPM_P1;HPM_P2
2022/08/20 00:00:30;;;;;;;14.35;12.07;;;19.80;99.90;;;;;;5052633;28;20476;-68
2022/08/20 00:02:59;;;;;;;20.40;11.32;;;19.80;99.90;;;;;;5049128;28;20083;-67
2022/08/20 00:05:35;;;;;;;16.38;11.68;;;19.70;99.90;;;;;;5051637;28;20052;-68
2022/08/20 00:08:02;;;;;;;14.93;10.93;;;19.30;99.90;;;;;;5052871;28;20110;-68
2022/08/20 00:10:29;;;;;;;14.82;10.57;;;19.60;99.90;;;;;;5050903;28;20044;-68
2022/08/20 00:12:55;;;;;;;13.18;11.63;;;19.80;99.90;;;;;;5052139;28;20045;-68
2022/08/20 00:15:28;;;;;;;14.40;10.88;;;19.40;99.90;;;;;;5052511;28;20384;-68
2022/08/20 00:17:54;;;;;;;14.35;11.60;;;19.80;99.90;;;;;;5051511;28;20045;-68
2022/08/20 00:20:22;;;;;;;14.40;11.15;;;19.40;99.90;;;;;;5034341;28;20119;-68
2022/08/20 00:22:48;;;;;;;13.98;11.57;;;19.60;99.90;;;;;;5052730;28;20405;-68
2022/08/20 00:25:18;;;;;;;17.13;11.40;;;19.60;99.90;;;;;;5051581;28;20095;-68
2022/08/20 00:27:44;;;;;;;19.60;11.18;;;19.80;99.90;;;;;;5051181;28;20033;-68
2022/08/20 00:30:13;;;;;;;16.42;11.40;;;19.80;99.90;;;;;;5052417;28;20041;-68
2022/08/20 00:32:48;;;;;;;15.68;9.98;;;19.50;99.90;;;;;;5051190;28;20043;-68
2022/08/20 00:35:16;;;;;;;13.38;11.10;;;19.60;99.90;;;;;;5034376;28;20041;-67
2022/08/20 00:37:42;;;;;;;16.95;11.23;;;19.10;99.90;;;;;;5050889;28;20107;-68
2022/08/20 00:40:10;;;;;;;18.58;11.45;;;19.30;99.90;;;;;;5051819;28;20045;-68
2022/08/20 00:42:45;;;;;;;16.13;9.73;;;19.00;99.90;;;;;;5052102;28;20049;-68
2022/08/20 00:45:11;;;;;;;13.13;10.05;;;18.90;99.90;;;;;;5052406;28;20391;-68
2022/08/20 00:47:44;;;;;;;12.02;9.23;;;19.10;99.90;;;;;;5052232;28;20037;-68
2022/08/20 00:50:20;;;;;;;14.30;9.50;;;19.00;99.90;;;;;;5050622;28;20037;-67
2022/08/20 00:52:49;;;;;;;18.27;9.13;;;19.50;99.90;;;;;;5050712;28;20388;-67
2022/08/20 00:55:18;;;;;;;15.98;9.00;;;19.00;99.90;;;;;;5051049;28;20041;-68
2022/08/20 00:57:52;;;;;;;12.40;8.50;;;19.20;99.90;;;;;;5051193;28;20131;-68
2022/08/20 01:00:23;;;;;;;14.23;8.55;;;18.90;99.90;;;;;;5051711;28;20045;-68
2022/08/20 01:02:49;;;;;;;12.40;8.70;;;19.30;99.90;;;;;;5052031;28;20041;-68
2022/08/20 01:05:15;;;;;;;14.32;9.48;;;19.00;99.90;;;;;;5051737;28;20049;-68
2022/08/20 01:07:43;;;;;;;12.50;8.38;;;18.90;99.90;;;;;;5050407;28;20052;-67
2022/08/20 01:10:13;;;;;;;15.57;9.65;;;19.30;99.90;;;;;;5033618;28;20116;-67
2022/08/20 01:12:43;;;;;;;9.55;7.72;;;19.30;99.90;;;;;;5051860;28;20033;-67
2022/08/20 01:15:13;;;;;;;17.00;9.60;;;19.20;99.90;;;;;;5050477;28;20041;-68
2022/08/20 01:17:44;;;;;;;15.30;9.00;;;19.30;99.90;;;;;;5051760;28;20037;-68
2022/08/20 01:20:32;;;;;;;15.23;8.68;;;19.20;99.90;;;;;;5050328;28;20045;-68
2022/08/20 01:23:33;;;;;;;16.77;8.35;;;18.60;99.90;;;;;;5051083;28;20059;-67
2022/08/20 01:26:07;;;;;;;11.95;7.93;;;19.10;99.90;;;;;;5043477;28;20055;-67
2022/08/20 01:29:05;;;;;;;15.57;9.65;;;18.90;99.90;;;;;;5052043;28;20041;-68
2022/08/20 01:31:35;;;;;;;18.13;10.32;;;18.90;99.90;;;;;;5048108;28;20124;-67
2022/08/20 01:34:03;;;;;;;19.65;9.07;;;18.50;99.90;;;;;;5051691;28;20033;-68
2022/08/20 01:36:34;;;;;;;14.80;8.75;;;19.10;99.90;;;;;;5050472;28;20407;-67
2022/08/20 01:39:00;;;;;;;15.70;9.38;;;19.10;99.90;;;;;;5050173;28;20467;-68
2022/08/20 01:41:50;;;;;;;14.82;9.93;;;18.90;99.90;;;;;;5050086;28;20037;-67
2022/08/20 01:44:17;;;;;;;16.35;9.07;;;18.70;99.90;;;;;;5051540;28;20120;-68
2022/08/20 01:46:44;;;;;;;17.40;8.95;;;18.90;99.90;;;;;;5050304;28;20045;-67
2022/08/20 01:49:18;;;;;;;16.75;8.75;;;19.10;99.90;;;;;;5050184;28;20040;-67
2022/08/20 01:51:44;;;;;;;13.68;10.02;;;18.40;99.90;;;;;;5051589;28;20037;-67
2022/08/20 01:54:09;;;;;;;21.80;9.95;;;18.70;99.90;;;;;;5050322;28;20029;-67
2022/08/20 01:57:09;;;;;;;12.32;9.13;;;19.00;99.90;;;;;;5050404;28;20512;-68
2022/08/20 01:59:35;;;;;;;17.00;9.98;;;18.80;99.90;;;;;;5050584;28;20057;-68
2022/08/20 02:02:01;;;;;;;15.15;8.65;;;18.40;99.90;;;;;;5051257;28;20095;-68
2022/08/20 02:04:27;;;;;;;15.45;9.30;;;18.60;99.90;;;;;;5050034;28;20037;-67
2022/08/20 02:06:57;;;;;;;13.82;9.13;;;18.40;99.90;;;;;;5049891;28;20045;-68
2022/08/20 02:09:23;;;;;;;16.55;9.15;;;18.40;99.90;;;;;;5049707;28;20090;-67
2022/08/20 02:11:49;;;;;;;21.05;8.95;;;18.70;99.90;;;;;;5051360;28;20410;-67
2022/08/20 02:14:15;;;;;;;15.60;9.45;;;18.50;99.90;;;;;;5051406;28;20033;-68
2022/08/20 02:16:45;;;;;;;14.77;8.77;;;18.50;99.90;;;;;;5051405;28;20070;-67
2022/08/20 02:19:24;;;;;;;16.88;9.55;;;18.60;99.90;;;;;;5033199;28;20049;-67
2022/08/20 02:21:54;;;;;;;16.45;9.73;;;18.60;99.90;;;;;;5051200;28;20120;-67
2022/08/20 02:24:20;;;;;;;15.63;10.55;;;18.30;99.90;;;;;;5049845;28;20124;-67
2022/08/20 02:26:46;;;;;;;17.02;10.15;;;18.40;99.90;;;;;;5049732;28;20183;-67
2022/08/20 02:29:13;;;;;;;20.90;9.02;;;18.20;99.90;;;;;;5049769;28;20158;-67
2022/08/20 02:31:42;;;;;;;21.13;9.32;;;18.20;99.90;;;;;;5049786;28;20041;-67
2022/08/20 02:34:10;;;;;;;12.77;9.20;;;18.60;99.90;;;;;;5049804;28;20041;-67
2022/08/20 02:36:37;;;;;;;12.55;8.73;;;18.70;99.90;;;;;;5054670;28;20041;-68
2022/08/20 02:39:06;;;;;;;15.38;9.60;;;18.30;99.90;;;;;;5054304;28;20041;-67
2022/08/20 02:41:32;;;;;;;17.40;9.38;;;18.60;99.90;;;;;;5053122;28;20045;-68
2022/08/20 02:43:57;;;;;;;16.50;10.00;;;18.40;99.90;;;;;;5054707;28;20069;-68
2022/08/20 02:46:23;;;;;;;17.02;9.43;;;18.60;99.90;;;;;;5054578;28;20536;-67
2022/08/20 02:48:48;;;;;;;13.68;8.93;;;18.60;99.90;;;;;;5054479;28;20498;-67
2022/08/20 02:51:14;;;;;;;17.42;9.73;;;18.40;99.90;;;;;;5053982;28;20483;-68
2022/08/20 02:53:43;;;;;;;13.95;9.15;;;18.20;99.90;;;;;;5053010;28;20124;-68
2022/08/20 02:56:10;;;;;;;15.68;8.52;;;18.50;99.90;;;;;;5053639;28;20033;-67
2022/08/20 02:58:37;;;;;;;19.25;9.05;;;18.50;99.90;;;;;;5051995;28;20040;-67
2022/08/20 03:01:05;;;;;;;13.65;9.15;;;17.90;99.90;;;;;;5053819;28;20033;-67
2022/08/20 03:03:30;;;;;;;13.35;9.57;;;17.80;99.90;;;;;;5054207;28;20090;-67
2022/08/20 03:05:58;;;;;;;16.95;9.57;;;17.80;99.90;;;;;;5054056;28;20045;-67
2022/08/20 03:08:25;;;;;;;15.38;9.43;;;17.90;99.90;;;;;;5053921;28;20106;-67
2022/08/20 03:10:51;;;;;;;24.52;9.50;;;17.80;99.90;;;;;;5053638;28;20483;-67
2022/08/20 03:13:18;;;;;;;12.88;9.05;;;17.70;99.90;;;;;;5054137;28;20044;-67
2022/08/20 03:15:53;;;;;;;14.75;8.93;;;18.00;99.90;;;;;;5053941;28;20130;-67
2022/08/20 03:18:19;;;;;;;15.60;9.20;;;18.20;99.90;;;;;;5052868;28;20045;-67
2022/08/20 03:20:46;;;;;;;16.77;10.00;;;17.70;99.90;;;;;;5052278;28;20518;-67
2022/08/20 03:23:13;;;;;;;18.48;9.52;;;17.60;99.90;;;;;;5054007;28;20093;-67
2022/08/20 03:25:38;;;;;;;20.38;8.88;;;17.90;99.90;;;;;;5053382;28;20041;-67
2022/08/20 03:28:05;;;;;;;17.58;8.75;;;17.60;99.90;;;;;;5052290;28;20506;-67
2022/08/20 03:30:31;;;;;;;13.27;8.02;;;17.90;99.90;;;;;;5052223;28;20040;-67
2022/08/20 03:32:58;;;;;;;17.60;9.13;;;17.80;99.90;;;;;;5053686;28;20467;-67
2022/08/20 03:35:26;;;;;;;12.90;8.20;;;17.40;99.90;;;;;;5052454;28;20438;-67
2022/08/20 03:37:51;;;;;;;14.77;8.10;;;17.50;99.90;;;;;;5052282;28;20526;-67
2022/08/20 03:40:32;;;;;;;16.17;8.50;;;17.80;99.90;;;;;;5075458;22;20065;-69
2022/08/20 03:42:57;;;;;;;16.65;8.73;;;17.50;99.90;;;;;;5053418;28;20111;-69
2022/08/20 03:45:25;;;;;;;12.48;7.50;;;17.80;99.90;;;;;;5053337;28;20462;-69
2022/08/20 03:47:52;;;;;;;15.90;7.95;;;17.70;99.90;;;;;;5052834;28;20045;-69
2022/08/20 03:50:22;;;;;;;17.45;8.50;;;17.30;99.90;;;;;;5052910;28;20110;-69
2022/08/20 03:52:49;;;;;;;20.13;8.05;;;17.50;99.90;;;;;;5053339;28;20056;-69
2022/08/20 03:55:14;;;;;;;13.13;7.60;;;17.30;99.90;;;;;;5053344;28;20087;-69
2022/08/20 03:57:45;;;;;;;15.38;8.00;;;17.50;99.90;;;;;;5053096;28;20049;-69
2022/08/20 04:00:13;;;;;;;13.63;7.47;;;17.60;99.90;;;;;;5052599;28;20119;-69
2022/08/20 04:02:39;;;;;;;16.27;6.60;;;17.40;99.90;;;;;;5052469;28;20059;-70
2022/08/20 04:05:05;;;;;;;20.85;7.32;;;17.60;99.90;;;;;;5053114;28;20116;-70
2022/08/20 04:07:31;;;;;;;12.85;7.25;;;17.60;99.90;;;;;;5053007;28;20040;-69
2022/08/20 04:09:57;;;;;;;14.45;6.72;;;17.70;99.90;;;;;;5052307;28;20044;-70
2022/08/20 04:12:24;;;;;;;11.77;5.95;;;17.30;99.90;;;;;;5052785;28;20033;-69
2022/08/20 04:14:50;;;;;;;17.15;6.38;;;17.30;99.90;;;;;;5052746;28;20394;-70
2022/08/20 04:17:18;;;;;;;9.60;5.82;;;17.50;99.90;;;;;;5052933;28;20040;-69
2022/08/20 04:19:44;;;;;;;14.30;6.28;;;17.70;99.90;;;;;;5051203;28;20142;-69
2022/08/20 04:22:13;;;;;;;13.23;6.28;;;17.50;99.90;;;;;;5052759;28;20200;-69
2022/08/20 04:24:42;;;;;;;9.77;5.43;;;17.70;99.90;;;;;;5052416;28;20514;-69
2022/08/20 04:27:09;;;;;;;10.25;4.75;;;17.60;99.90;;;;;;5052223;28;20052;-69
2022/08/20 04:29:36;;;;;;;11.88;5.50;;;17.70;99.90;;;;;;5052140;28;20397;-69
2022/08/20 04:32:05;;;;;;;14.52;5.75;;;17.40;99.90;;;;;;5052402;28;20098;-69
2022/08/20 04:34:31;;;;;;;9.10;5.32;;;17.40;99.90;;;;;;5051334;28;20387;-69
2022/08/20 04:36:56;;;;;;;14.60;5.78;;;17.60;99.90;;;;;;5051022;28;20037;-69
2022/08/20 04:39:22;;;;;;;11.98;4.68;;;17.30;99.90;;;;;;5051797;28;20075;-69
2022/08/20 04:41:48;;;;;;;19.67;5.20;;;17.20;99.90;;;;;;5052167;28;20390;-69
2022/08/20 04:44:13;;;;;;;7.22;4.20;;;17.40;99.90;;;;;;5052429;28;20033;-69
2022/08/20 04:46:41;;;;;;;9.90;5.03;;;17.60;99.90;;;;;;5050788;28;20047;-69
2022/08/20 04:49:06;;;;;;;12.30;4.50;;;17.40;99.90;;;;;;5050699;28;20076;-69
2022/08/20 04:51:32;;;;;;;14.52;4.53;;;17.70;99.90;;;;;;5051941;28;20071;-69
2022/08/20 04:53:58;;;;;;;10.48;4.57;;;17.40;99.90;;;;;;5052169;28;20120;-69
2022/08/20 04:56:30;;;;;;;11.35;4.45;;;17.30;99.90;;;;;;5050633;28;20076;-70
2022/08/20 04:58:58;;;;;;;12.63;4.57;;;17.60;99.90;;;;;;5050231;28;20040;-69
2022/08/20 05:01:24;;;;;;;9.63;4.40;;;17.40;99.90;;;;;;5050109;28;20041;-69
2022/08/20 05:03:54;;;;;;;14.10;4.70;;;17.60;99.90;;;;;;5051980;28;20162;-69
2022/08/20 05:06:27;;;;;;;15.20;5.00;;;17.40;99.90;;;;;;5051810;28;20078;-69
2022/08/20 05:08:54;;;;;;;15.38;4.78;;;17.30;99.90;;;;;;5051771;28;20037;-69
2022/08/20 05:11:21;;;;;;;9.63;4.32;;;17.50;99.90;;;;;;5051647;28;20065;-69
2022/08/20 05:13:47;;;;;;;10.73;4.50;;;17.60;99.90;;;;;;5051972;28;20119;-69
2022/08/20 05:16:14;;;;;;;7.90;4.22;;;17.50;99.90;;;;;;5050731;28;20108;-69
2022/08/20 05:18:40;;;;;;;9.63;4.47;;;17.20;99.90;;;;;;5051720;28;20514;-69
2022/08/20 05:21:05;;;;;;;9.38;4.10;;;17.40;99.90;;;;;;5051168;28;20677;-69
2022/08/20 05:23:38;;;;;;;12.35;4.05;;;17.20;99.90;;;;;;5051599;28;20041;-69
2022/08/20 05:26:06;;;;;;;8.35;4.00;;;17.50;99.90;;;;;;5051585;28;20044;-69
2022/08/20 05:28:32;;;;;;;11.95;4.43;;;17.50;99.90;;;;;;5050315;28;20041;-69
2022/08/20 05:31:00;;;;;;;10.52;4.53;;;17.40;99.90;;;;;;5050038;28;20044;-69
2022/08/20 05:33:26;;;;;;;7.40;4.35;;;17.30;99.90;;;;;;5051671;28;20073;-69
2022/08/20 05:35:52;;;;;;;8.45;3.50;;;17.50;99.90;;;;;;5051527;28;20387;-69
2022/08/20 05:38:20;;;;;;;11.20;4.82;;;17.10;99.90;;;;;;5051386;28;20041;-69
2022/08/20 05:40:47;;;;;;;8.48;4.85;;;17.40;99.90;;;;;;5050913;28;20519;-69
2022/08/20 05:43:13;;;;;;;13.55;4.10;;;17.30;99.90;;;;;;5051412;28;20052;-69
2022/08/20 05:45:41;;;;;;;10.70;3.92;;;17.20;99.90;;;;;;5050162;28;20542;-70
2022/08/20 05:48:10;;;;;;;8.25;4.13;;;17.40;99.90;;;;;;5051503;28;20499;-69
2022/08/20 05:50:36;;;;;;;8.43;3.90;;;17.10;99.90;;;;;;5051027;28;20445;-69
2022/08/20 05:53:02;;;;;;;9.20;4.45;;;17.20;99.90;;;;;;5051325;28;20099;-69
2022/08/20 05:55:28;;;;;;;6.75;4.55;;;17.20;99.90;;;;;;5051437;28;20033;-69
2022/08/20 05:57:59;;;;;;;9.32;4.88;;;17.20;99.90;;;;;;5051646;28;20703;-69
2022/08/20 06:00:25;;;;;;;10.63;4.97;;;17.60;99.90;;;;;;5050892;28;20045;-69
2022/08/20 06:05:35;;;;;;;11.25;4.85;;;18.20;99.90;;;;;;5051267;28;20494;-69
2022/08/20 06:08:03;;;;;;;9.23;4.32;;;17.80;99.90;;;;;;5051176;28;20045;-69
2022/08/20 06:10:29;;;;;;;9.50;5.00;;;18.20;99.90;;;;;;5053019;28;20495;-69
2022/08/20 06:12:54;;;;;;;10.88;4.93;;;18.30;99.90;;;;;;5055202;28;20041;-69
2022/08/20 06:15:20;;;;;;;11.93;5.28;;;18.50;99.90;;;;;;5055054;28;20521;-69
2022/08/20 06:17:45;;;;;;;11.32;5.13;;;18.60;99.90;;;;;;5054898;28;20076;-69
2022/08/20 06:20:11;;;;;;;8.48;4.75;;;18.40;99.90;;;;;;5054758;28;20037;-69
2022/08/20 06:22:37;;;;;;;12.80;4.78;;;18.80;99.90;;;;;;5055098;28;20037;-70
2022/08/20 06:25:05;;;;;;;10.45;4.57;;;19.00;99.90;;;;;;5054901;28;20037;-69
2022/08/20 06:27:31;;;;;;;11.98;4.78;;;18.80;99.90;;;;;;5053439;28;20094;-69
2022/08/20 06:29:56;;;;;;;15.50;5.00;;;18.60;99.90;;;;;;5054379;28;20037;-69
2022/08/20 06:32:25;;;;;;;6.70;3.95;;;18.90;99.90;;;;;;5054618;28;20037;-69
2022/08/20 06:34:52;;;;;;;13.27;4.07;;;19.00;99.90;;;;;;5054693;28;20486;-69
2022/08/20 06:37:22;;;;;;;12.50;5.20;;;19.00;99.90;;;;;;5054803;28;20037;-69
2022/08/20 06:39:48;;;;;;;8.65;3.60;;;19.20;99.90;;;;;;5054095;28;20490;-69
2022/08/20 06:42:13;;;;;;;10.15;3.65;;;19.30;99.90;;;;;;5050012;28;20116;-69
2022/08/20 06:44:39;;;;;;;13.25;3.50;;;19.70;99.90;;;;;;5054440;28;20451;-69
2022/08/20 06:47:05;;;;;;;8.95;3.60;;;20.20;99.90;;;;;;5054268;28;20033;-69
2022/08/20 06:49:35;;;;;;;9.52;2.53;;;20.20;99.90;;;;;;5054225;28;20123;-69
2022/08/20 06:52:02;;;;;;;7.05;2.83;;;20.60;99.90;;;;;;5054572;28;20045;-69
2022/08/20 06:54:28;;;;;;;7.43;2.85;;;21.00;99.90;;;;;;5054285;28;20044;-69
2022/08/20 06:56:53;;;;;;;12.30;3.30;;;21.10;99.90;;;;;;5054238;28;20403;-69
2022/08/20 06:59:19;;;;;;;8.13;2.35;;;21.40;99.90;;;;;;5053857;28;20048;-70
2022/08/20 07:01:45;;;;;;;13.10;3.13;;;21.40;99.90;;;;;;5054145;28;20041;-70
2022/08/20 07:04:11;;;;;;;8.65;2.35;;;21.60;99.90;;;;;;5054042;28;20044;-69
2022/08/20 07:06:36;;;;;;;10.48;2.35;;;21.60;99.90;;;;;;5054167;28;20041;-70
2022/08/20 07:09:02;;;;;;;7.10;2.40;;;21.90;99.90;;;;;;5053974;28;20090;-70
2022/08/20 07:11:28;;;;;;;8.88;2.67;;;22.00;99.90;;;;;;5053623;28;20036;-70
2022/08/20 07:13:57;;;;;;;8.40;1.95;;;22.20;99.90;;;;;;5053830;28;20410;-70
2022/08/20 07:16:23;;;;;;;6.82;2.55;;;22.20;99.90;;;;;;5053851;28;20044;-70
2022/08/20 07:18:49;;;;;;;5.32;2.30;;;22.30;99.90;;;;;;5052861;28;20056;-70
2022/08/20 07:21:16;;;;;;;7.15;2.20;;;22.50;99.90;;;;;;5051875;28;20041;-69
2022/08/20 07:23:41;;;;;;;8.60;1.92;;;22.60;99.90;;;;;;5053903;28;20198;-69
2022/08/20 07:26:07;;;;;;;4.78;1.50;;;22.80;99.90;;;;;;5053787;28;20033;-67
2022/08/20 07:28:33;;;;;;;6.28;1.80;;;22.90;99.90;;;;;;5053475;28;20449;-67
2022/08/20 07:33:43;;;;;;;8.43;1.70;;;23.10;99.90;;;;;;5053739;28;20041;-69
2022/08/20 07:36:09;;;;;;;7.22;1.70;;;23.20;99.90;;;;;;5052126;28;20041;-69
2022/08/20 07:38:36;;;;;;;5.88;1.90;;;23.20;99.90;;;;;;5046844;28;20033;-66
2022/08/20 07:41:12;;;;;;;6.75;1.65;;;23.40;99.50;;;;;;5032849;28;20400;-67
2022/08/20 07:43:38;;;;;;;9.70;2.22;;;23.60;98.20;;;;;;5033420;28;20077;-67
2022/08/20 07:46:07;;;;;;;8.98;2.10;;;23.70;98.20;;;;;;5033451;28;20041;-67
2022/08/20 07:48:41;;;;;;;8.38;1.88;;;23.90;96.00;;;;;;5033430;28;20038;-67
2022/08/20 07:51:08;;;;;;;6.30;1.13;;;24.20;95.50;;;;;;5032862;28;20571;-67
2022/08/20 07:53:35;;;;;;;11.30;1.88;;;24.00;95.10;;;;;;5033086;28;20072;-67
2022/08/20 07:56:06;;;;;;;8.00;1.73;;;24.00;94.90;;;;;;5033467;28;20136;-66
2022/08/20 07:58:31;;;;;;;6.60;1.52;;;24.00;94.10;;;;;;5032166;28;20053;-67
2022/08/20 08:00:57;;;;;;;10.82;1.83;;;24.10;93.90;;;;;;5032991;28;20409;-66
2022/08/20 08:03:22;;;;;;;7.95;1.83;;;24.10;93.60;;;;;;5032966;28;20045;-67
2022/08/20 08:05:52;;;;;;;5.50;1.35;;;24.40;94.00;;;;;;5031815;28;20053;-67
2022/08/20 08:08:22;;;;;;;6.43;1.02;;;24.50;93.60;;;;;;5032908;28;20038;-66
2022/08/20 08:10:51;;;;;;;4.85;1.23;;;24.50;91.60;;;;;;5032601;28;20495;-67
2022/08/20 08:13:17;;;;;;;5.00;1.33;;;24.40;91.10;;;;;;5033028;28;20042;-67
2022/08/20 08:15:49;;;;;;;7.57;1.30;;;24.50;91.20;;;;;;5031629;28;20072;-67
2022/08/20 08:18:20;;;;;;;4.55;1.15;;;24.90;90.20;;;;;;5032886;28;20049;-67
2022/08/20 08:20:46;;;;;;;4.97;1.50;;;24.70;88.60;;;;;;5032355;28;20503;-67
2022/08/20 08:23:12;;;;;;;7.30;1.30;;;24.60;88.10;;;;;;5032797;28;20049;-67
2022/08/20 08:25:41;;;;;;;6.00;1.38;;;24.60;86.30;;;;;;5032868;28;20037;-67
2022/08/20 08:28:10;;;;;;;2.75;1.00;;;24.50;84.70;;;;;;5032521;28;20395;-67
2022/08/20 08:30:39;;;;;;;5.07;1.27;;;24.50;84.60;;;;;;5032255;28;20394;-67
2022/08/20 08:35:49;;;;;;;4.05;1.63;;;24.60;83.30;;;;;;5032685;28;20052;-67
2022/08/20 08:38:15;;;;;;;5.22;0.95;;;24.60;82.30;;;;;;5032545;28;20033;-66
2022/08/20 08:40:42;;;;;;;6.93;1.88;;;24.70;80.90;;;;;;5032019;28;20037;-67
2022/08/20 08:43:11;;;;;;;5.72;1.40;;;24.90;79.40;;;;;;5032259;28;20041;-66
2022/08/20 08:45:45;;;;;;;5.90;1.27;;;24.80;77.70;;;;;;5032202;28;20037;-67
2022/08/20 08:48:14;;;;;;;4.82;0.85;;;24.10;73.90;;;;;;5032350;28;20099;-67
2022/08/20 08:50:44;;;;;;;3.75;0.95;;;24.50;77.00;;;;;;5031757;28;20048;-67
2022/08/20 08:53:18;;;;;;;5.78;0.88;;;24.60;78.10;;;;;;5034102;28;20047;-67
2022/08/20 08:55:44;;;;;;;6.05;1.10;;;24.70;75.20;;;;;;5063786;28;20098;-67
2022/08/20 08:58:10;;;;;;;5.97;0.98;;;24.60;75.70;;;;;;5063220;28;20036;-68
2022/08/20 09:00:36;;;;;;;6.55;0.85;;;25.00;75.40;;;;;;5071684;28;20040;-67
2022/08/20 09:03:09;;;;;;;5.85;1.23;;;25.10;72.40;;;;;;5070901;28;20048;-67
2022/08/20 09:05:47;;;;;;;5.18;1.20;;;25.30;71.80;;;;;;5072123;28;20040;-68
2022/08/20 09:08:18;;;;;;;4.57;1.33;;;25.50;70.50;;;;;;5071855;28;20128;-67
2022/08/20 09:10:44;;;;;;;9.10;1.13;;;25.40;73.20;;;;;;5071204;28;20041;-67
2022/08/20 09:13:10;;;;;;;3.97;1.00;;;25.40;72.00;;;;;;5071912;28;20037;-67
2022/08/20 09:15:36;;;;;;;4.00;0.93;;;25.40;70.10;;;;;;5071970;28;20040;-67
2022/08/20 09:18:02;;;;;;;6.30;1.05;;;25.60;69.40;;;;;;5071871;28;20032;-67
2022/08/20 09:20:28;;;;;;;4.40;0.88;;;25.40;68.40;;;;;;5071185;28;20067;-68
2022/08/20 09:22:54;;;;;;;6.15;1.42;;;25.50;70.00;;;;;;5071763;28;20067;-67
2022/08/20 09:25:20;;;;;;;9.45;2.78;;;25.40;70.10;;;;;;5071574;28;20119;-67
2022/08/20 09:27:45;;;;;;;4.63;0.90;;;25.10;70.10;;;;;;5071745;28;20178;-67
2022/08/20 09:30:12;;;;;;;7.20;1.80;;;24.90;70.50;;;;;;5071413;28;20453;-67
2022/08/20 09:32:37;;;;;;;2.92;1.00;;;24.90;71.10;;;;;;5071726;28;20033;-67
2022/08/20 09:35:03;;;;;;;7.40;1.30;;;25.00;72.00;;;;;;5071396;28;20070;-67
2022/08/20 09:37:31;;;;;;;6.00;1.42;;;25.10;71.70;;;;;;5071071;28;20506;-67
2022/08/20 09:39:57;;;;;;;6.18;1.00;;;25.10;71.40;;;;;;5092927;22;20499;-69
2022/08/20 09:42:26;;;;;;;7.57;1.52;;;25.20;70.90;;;;;;5070101;28;20064;-69
2022/08/20 09:44:53;;;;;;;5.65;1.45;;;25.20;73.30;;;;;;5073180;28;20059;-70
2022/08/20 09:47:19;;;;;;;5.20;1.13;;;25.10;71.60;;;;;;5074168;28;20075;-69
2022/08/20 09:49:46;;;;;;;5.20;0.93;;;24.90;69.70;;;;;;5073862;28;20041;-70
2022/08/20 09:52:26;;;;;;;4.65;1.08;;;24.80;68.30;;;;;;5074315;28;20236;-69
2022/08/20 09:54:57;;;;;;;3.50;1.05;;;24.70;70.30;;;;;;5074169;28;20580;-70
2022/08/20 09:57:23;;;;;;;5.72;1.05;;;24.70;69.80;;;;;;5075511;28;20055;-69
2022/08/20 09:59:55;;;;;;;4.40;1.15;;;24.20;70.40;;;;;;5075179;28;20036;-70
2022/08/20 10:02:21;;;;;;;8.40;1.70;;;24.00;71.20;;;;;;5073892;28;20090;-70
2022/08/20 10:04:47;;;;;;;8.52;1.45;;;23.80;71.80;;;;;;5074086;28;20048;-69
2022/08/20 10:07:13;;;;;;;4.75;1.20;;;24.00;72.00;;;;;;5074137;28;20048;-69
2022/08/20 10:09:38;;;;;;;7.18;1.48;;;24.20;70.70;;;;;;5074935;28;20068;-69
2022/08/20 10:12:04;;;;;;;4.90;1.27;;;24.20;72.20;;;;;;5073716;28;20036;-70
2022/08/20 10:14:30;;;;;;;4.68;1.55;;;23.80;71.30;;;;;;5074167;28;20055;-70
2022/08/20 10:16:57;;;;;;;3.97;0.98;;;23.60;71.70;;;;;;5075194;28;20497;-70
2022/08/20 10:19:23;;;;;;;6.07;1.45;;;23.30;70.40;;;;;;5073608;28;20113;-70
2022/08/20 10:21:52;;;;;;;5.15;1.55;;;23.20;71.10;;;;;;5073201;28;20486;-69
2022/08/20 10:24:19;;;;;;;3.85;0.73;;;23.40;71.50;;;;;;5073848;28;20040;-69
2022/08/20 10:26:45;;;;;;;5.10;1.30;;;23.00;70.30;;;;;;5074420;28;20162;-69
2022/08/20 10:29:11;;;;;;;4.75;1.65;;;23.10;69.60;;;;;;5073126;28;20037;-70
2022/08/20 10:31:37;;;;;;;5.43;1.27;;;23.40;72.00;;;;;;5073313;28;20443;-69
2022/08/20 10:34:02;;;;;;;3.40;1.08;;;23.50;70.80;;;;;;5065411;28;20047;-69
2022/08/20 10:36:28;;;;;;;4.70;1.15;;;23.40;69.40;;;;;;5061543;28;20402;-69
2022/08/20 10:38:54;;;;;;;4.65;1.10;;;23.60;70.40;;;;;;5063416;28;20052;-68
2022/08/20 10:41:20;;;;;;;6.28;1.05;;;23.80;71.20;;;;;;5066766;28;20060;-69
2022/08/20 10:43:46;;;;;;;5.63;1.00;;;23.90;70.10;;;;;;5073355;28;20048;-69
2022/08/20 10:46:11;;;;;;;3.75;0.95;;;23.90;68.40;;;;;;5056442;28;20053;-69
2022/08/20 10:48:37;;;;;;;5.97;1.58;;;24.00;69.40;;;;;;5074148;28;20041;-69
2022/08/20 10:51:03;;;;;;;8.48;1.73;;;23.90;66.50;;;;;;5074206;28;20036;-68
2022/08/20 10:53:29;;;;;;;4.55;1.10;;;24.00;69.10;;;;;;5074501;28;20045;-68
2022/08/20 10:55:55;;;;;;;6.80;1.55;;;24.00;68.00;;;;;;5073638;28;20037;-69
2022/08/20 10:58:21;;;;;;;5.25;1.00;;;23.90;66.50;;;;;;5074315;28;20398;-69
2022/08/20 11:00:46;;;;;;;5.07;1.35;;;23.90;66.20;;;;;;5072690;28;20036;-69
2022/08/20 11:03:12;;;;;;;5.65;0.90;;;23.60;66.40;;;;;;5073993;28;20613;-69
2022/08/20 11:05:38;;;;;;;4.93;1.40;;;23.60;67.70;;;;;;5074402;28;20067;-69
2022/08/20 11:08:04;;;;;;;5.13;1.40;;;23.40;68.20;;;;;;5074245;28;20124;-69
2022/08/20 11:10:32;;;;;;;4.55;1.30;;;23.20;67.70;;;;;;5072459;28;20050;-70
2022/08/20 11:12:59;;;;;;;3.78;1.35;;;23.10;68.50;;;;;;5068824;28;20076;-69
2022/08/20 11:15:24;;;;;;;6.40;1.35;;;23.00;67.40;;;;;;5068727;28;20033;-69
2022/08/20 11:17:50;;;;;;;6.15;1.60;;;23.10;67.80;;;;;;5073792;28;20052;-69
2022/08/20 11:20:18;;;;;;;6.35;1.50;;;23.20;69.80;;;;;;5073761;28;20402;-70
2022/08/20 11:22:44;;;;;;;5.88;1.50;;;23.10;70.90;;;;;;5072675;28;20056;-69
2022/08/20 11:25:09;;;;;;;5.53;1.88;;;23.10;69.80;;;;;;5073797;28;20052;-69
2022/08/20 11:27:45;;;;;;;5.80;1.60;;;23.00;67.80;;;;;;5072619;28;20067;-68
2022/08/20 11:30:21;;;;;;;3.40;1.25;;;23.00;65.50;;;;;;5072024;28;20525;-69
2022/08/20 11:32:47;;;;;;;6.75;1.42;;;23.10;66.10;;;;;;5074063;28;20120;-69
2022/08/20 11:35:12;;;;;;;4.60;1.23;;;23.10;65.50;;;;;;5073881;28;20037;-70
2022/08/20 11:37:38;;;;;;;4.00;1.40;;;23.20;67.90;;;;;;5072326;28;20409;-69
2022/08/20 11:40:06;;;;;;;5.60;1.80;;;23.00;67.20;;;;;;5073081;28;20458;-69
2022/08/20 11:42:32;;;;;;;6.43;1.52;;;23.00;67.80;;;;;;5072399;28;20079;-69
2022/08/20 11:44:57;;;;;;;5.28;1.40;;;23.00;67.70;;;;;;5073363;28;20033;-69
2022/08/20 11:47:26;;;;;;;8.13;1.90;;;23.00;67.50;;;;;;5073342;28;20094;-68
2022/08/20 11:50:18;;;;;;;6.72;1.77;;;23.10;68.50;;;;;;5072003;28;20036;-68
2022/08/20 11:52:44;;;;;;;4.63;1.27;;;23.30;69.00;;;;;;5072362;28;20051;-68
2022/08/20 11:55:12;;;;;;;7.80;1.80;;;23.40;67.40;;;;;;5071927;28;20052;-68
2022/08/20 11:57:42;;;;;;;5.35;1.80;;;23.50;67.50;;;;;;5066830;28;20047;-70
2022/08/20 12:00:14;;;;;;;6.30;1.67;;;23.30;66.80;;;;;;5065566;28;20075;-69
2022/08/20 12:02:40;;;;;;;5.10;2.35;;;23.20;67.60;;;;;;5072569;28;20047;-69
2022/08/20 12:05:07;;;;;;;5.30;1.70;;;23.20;70.40;;;;;;5069029;28;20120;-69
2022/08/20 12:07:33;;;;;;;6.22;1.95;;;23.10;70.20;;;;;;5051764;28;20037;-69
2022/08/20 12:09:59;;;;;;;5.82;1.92;;;23.00;70.50;;;;;;5052485;28;20045;-69
2022/08/20 12:12:24;;;;;;;5.75;1.95;;;23.00;70.50;;;;;;5051668;28;20124;-70
2022/08/20 12:14:52;;;;;;;6.93;2.05;;;23.10;70.90;;;;;;5053006;28;20083;-70
2022/08/20 12:17:25;;;;;;;5.00;1.45;;;23.20;69.90;;;;;;5051856;28;20036;-70
2022/08/20 12:19:53;;;;;;;4.50;1.30;;;23.40;69.50;;;;;;5052845;28;20047;-70
2022/08/20 12:22:19;;;;;;;6.55;2.70;;;23.50;69.10;;;;;;5051686;28;20068;-69
2022/08/20 12:24:44;;;;;;;8.07;2.05;;;23.40;68.90;;;;;;5053154;28;20075;-70
2022/08/20 12:27:12;;;;;;;5.85;1.48;;;23.50;71.00;;;;;;5051517;28;20442;-70
2022/08/20 12:29:39;;;;;;;6.50;2.05;;;23.50;71.10;;;;;;5052629;28;20079;-70
2022/08/20 12:32:06;;;;;;;8.85;2.10;;;23.50;69.70;;;;;;5052837;28;20036;-70
2022/08/20 12:34:36;;;;;;;7.18;1.45;;;23.40;70.30;;;;;;5053150;28;20486;-69
2022/08/20 12:37:09;;;;;;;6.60;1.58;;;23.30;68.70;;;;;;5054083;28;20045;-69
2022/08/20 12:39:37;;;;;;;4.20;1.40;;;23.30;67.10;;;;;;5054235;28;20107;-69
2022/08/20 12:42:03;;;;;;;8.07;1.63;;;23.20;68.40;;;;;;5054952;28;20040;-70
2022/08/20 12:44:29;;;;;;;4.90;1.52;;;23.20;68.70;;;;;;5055863;28;20037;-69
2022/08/20 12:47:29;;;;;;;5.00;1.50;;;23.20;68.60;;;;;;5054958;28;20045;-70
2022/08/20 12:50:00;;;;;;;3.63;1.55;;;23.10;68.50;;;;;;5058505;28;20084;-70
2022/08/20 12:52:27;;;;;;;4.82;1.70;;;23.20;68.20;;;;;;5052906;28;20041;-70